M I D A S
Marine Information and Data Acquisition System
Tripno 1308 of the Zeeleeuw from 2007-05-22 11:38:09 to 2007-05-22 13:01:26
Back to CruiseResearch ActivitiesStationsMapUnderway DataData graphs

EquipmentUnitsComments
TimeDGPSUTC
LatitudeDGPSDM.mWGS84
LongitudeDGPSDM.mWGS84
SpeedMeteo Stationm/sRelative wind speed
DirectionMeteo StationdegRelative wind direction
TemperatureMeteo Stationdeg CelciusAir temperature
PressureMeteo StationPaAtmospheric pressure
HumidityMeteo Station%Relative humidity
Missing or incorrect values are displayed as -999
Metereological data collected by the RV Zeeleeuw from 2007-05-22 07:30:53 to 2007-05-22 13:35:04
Time Latitude Longitude Speed Direction Temperature Pressure Humidity
2007-05-22 07:31 51°13.613 2°56.05 -999 -999 -999 -999 -999
2007-05-22 07:32 51°13.651 2°55.927 -999 -999 -999 -999 -999
2007-05-22 07:33 51°13.683 2°55.821 -999 -999 -999 -999 -999
2007-05-22 07:34 51°13.695 2°55.742 -999 -999 -999 -999 -999
2007-05-22 07:35 51°13.698 2°55.71 -999 -999 -999 -999 -999
2007-05-22 07:36 51°13.731 2°55.725 -999 -999 -999 -999 -999
2007-05-22 07:37 51°13.816 2°55.661 -999 -999 -999 -999 -999
2007-05-22 07:38 51°13.964 2°55.542 -999 -999 -999 -999 -999
2007-05-22 07:39 51°14.085 2°55.454 -999 -999 -999 -999 -999
2007-05-22 07:40 51°14.195 2°55.376 -999 -999 -999 -999 -999
2007-05-22 07:41 51°14.324 2°55.179 -999 -999 -999 -999 -999
2007-05-22 07:42 51°14.41 2°54.89 -999 -999 -999 -999 -999
2007-05-22 07:43 51°14.452 2°54.543 -999 -999 -999 -999 -999
2007-05-22 07:44 51°14.444 2°54.192 -999 -999 -999 -999 -999
2007-05-22 07:45 51°14.325 2°53.886 -999 -999 -999 -999 -999
2007-05-22 07:46 51°14.197 2°53.585 -999 -999 -999 -999 -999
2007-05-22 07:47 51°14.071 2°53.284 -999 -999 -999 -999 -999
2007-05-22 07:48 51°13.95 2°52.976 -999 -999 -999 -999 -999
2007-05-22 07:49 51°13.828 2°52.669 -999 -999 -999 -999 -999
2007-05-22 07:50 51°13.705 2°52.363 -999 -999 -999 -999 -999
2007-05-22 07:51 51°13.585 2°52.055 -999 -999 -999 -999 -999
2007-05-22 07:52 51°13.463 2°51.748 -999 -999 -999 -999 -999
2007-05-22 07:53 51°13.341 2°51.44 -999 -999 -999 -999 -999
2007-05-22 07:54 51°13.221 2°51.13 -999 -999 -999 -999 -999
2007-05-22 07:55 51°13.099 2°50.821 -999 -999 -999 -999 -999
2007-05-22 07:56 51°12.978 2°50.511 -999 -999 -999 -999 -999
2007-05-22 07:57 51°12.856 2°50.199 -999 -999 -999 -999 -999
2007-05-22 07:58 51°12.735 2°49.886 -999 -999 -999 -999 -999
2007-05-22 07:59 51°12.614 2°49.571 -999 -999 -999 -999 -999
2007-05-22 08:00 51°12.491 2°49.26 -999 -999 -999 -999 -999
2007-05-22 08:01 51°12.369 2°48.945 -999 -999 -999 -999 -999
2007-05-22 08:02 51°12.264 2°48.653 -999 -999 -999 -999 -999
2007-05-22 08:03 51°12.156 2°48.602 -999 -999 -999 -999 -999
2007-05-22 08:04 51°12.171 2°48.718 -999 -999 -999 -999 -999
2007-05-22 08:05 51°12.3 2°48.887 -999 -999 -999 -999 -999
2007-05-22 08:06 51°12.436 2°49.118 -999 -999 -999 -999 -999
2007-05-22 08:07 51°12.573 2°49.357 -999 -999 -999 -999 -999
2007-05-22 08:08 51°12.709 2°49.599 -999 -999 -999 -999 -999
2007-05-22 08:09 51°12.843 2°49.841 -999 -999 -999 -999 -999
2007-05-22 08:10 51°12.973 2°50.093 -999 -999 -999 -999 -999
2007-05-22 08:11 51°13.103 2°50.344 -999 -999 -999 -999 -999
2007-05-22 08:12 51°13.204 2°50.622 -999 -999 -999 -999 -999
2007-05-22 08:13 51°13.303 2°50.902 -999 -999 -999 -999 -999
2007-05-22 08:14 51°13.41 2°51.175 -999 -999 -999 -999 -999
2007-05-22 08:15 51°13.522 2°51.444 -999 -999 -999 -999 -999
2007-05-22 08:16 51°13.625 2°51.723 -999 -999 -999 -999 -999
2007-05-22 08:17 51°13.724 2°52.004 -999 -999 -999 -999 -999
2007-05-22 08:18 51°13.824 2°52.284 -999 -999 -999 -999 -999
2007-05-22 08:19 51°13.925 2°52.565 -999 -999 -999 -999 -999
2007-05-22 08:20 51°14.024 2°52.843 -999 -999 -999 -999 -999
2007-05-22 08:21 51°14.124 2°53.121 -999 -999 -999 -999 -999
2007-05-22 08:22 51°14.234 2°53.384 -999 -999 -999 -999 -999
2007-05-22 08:23 51°14.397 2°53.563 -999 -999 -999 -999 -999
2007-05-22 08:24 51°14.577 2°53.707 -999 -999 -999 -999 -999
2007-05-22 08:25 51°14.764 2°53.84 -999 -999 -999 -999 -999
2007-05-22 08:26 51°14.953 2°53.756 -999 -999 -999 -999 -999
2007-05-22 08:27 51°15.052 2°53.458 -999 -999 -999 -999 -999
2007-05-22 08:28 51°15.007 2°53.11 -999 -999 -999 -999 -999
2007-05-22 08:29 51°14.963 2°52.755 -999 -999 -999 -999 -999
2007-05-22 08:30 51°14.915 2°52.396 -999 -999 -999 -999 -999
2007-05-22 08:31 51°14.865 2°52.035 -999 -999 -999 -999 -999
2007-05-22 08:32 51°14.815 2°51.675 -999 -999 -999 -999 -999
2007-05-22 08:33 51°14.775 2°51.386 -999 -999 -999 -999 -999
2007-05-22 08:34 51°14.743 2°51.178 -999 -999 -999 -999 -999
2007-05-22 08:35 51°14.724 2°51.034 -999 -999 -999 -999 -999
2007-05-22 08:36 51°14.718 2°50.951 -999 -999 -999 -999 -999
2007-05-22 08:37 51°14.708 2°50.916 -999 -999 -999 -999 -999
2007-05-22 08:38 51°14.695 2°50.894 -999 -999 -999 -999 -999
2007-05-22 08:39 51°14.682 2°50.873 -999 -999 -999 -999 -999
2007-05-22 08:40 51°14.669 2°50.85 -999 -999 -999 -999 -999
2007-05-22 08:41 51°14.654 2°50.826 -999 -999 -999 -999 -999
2007-05-22 08:42 51°14.639 2°50.803 -999 -999 -999 -999 -999
2007-05-22 08:43 51°14.617 2°50.766 -999 -999 -999 -999 -999
2007-05-22 08:44 51°14.587 2°50.689 -999 -999 -999 -999 -999
2007-05-22 08:45 51°14.565 2°50.617 -999 -999 -999 -999 -999
2007-05-22 08:46 51°14.547 2°50.536 -999 -999 -999 -999 -999
2007-05-22 08:47 51°14.555 2°50.437 -999 -999 -999 -999 -999
2007-05-22 08:48 51°14.598 2°50.373 -999 -999 -999 -999 -999
2007-05-22 08:49 51°14.646 2°50.404 -999 -999 -999 -999 -999
2007-05-22 08:50 51°14.63 2°50.464 -999 -999 -999 -999 -999
2007-05-22 08:51 51°14.57 2°50.46 -999 -999 -999 -999 -999
2007-05-22 08:52 51°14.505 2°50.396 -999 -999 -999 -999 -999
2007-05-22 08:53 51°14.453 2°50.302 -999 -999 -999 -999 -999
2007-05-22 08:54 51°14.396 2°50.22 -999 -999 -999 -999 -999
2007-05-22 08:55 51°14.34 2°50.135 -999 -999 -999 -999 -999
2007-05-22 08:56 51°14.295 2°50.051 -999 -999 -999 -999 -999
2007-05-22 08:57 51°14.266 2°49.969 -999 -999 -999 -999 -999
2007-05-22 08:58 51°14.246 2°49.889 -999 -999 -999 -999 -999
2007-05-22 08:59 51°14.231 2°49.809 -999 -999 -999 -999 -999
2007-05-22 09:00 51°14.217 2°49.728 -999 -999 -999 -999 -999
2007-05-22 09:01 51°14.204 2°49.647 -999 -999 -999 -999 -999
2007-05-22 09:02 51°14.193 2°49.564 -999 -999 -999 -999 -999
2007-05-22 09:03 51°14.183 2°49.481 -999 -999 -999 -999 -999
2007-05-22 09:04 51°14.173 2°49.399 -999 -999 -999 -999 -999
2007-05-22 09:05 51°14.163 2°49.315 -999 -999 -999 -999 -999
2007-05-22 09:06 51°14.155 2°49.232 -999 -999 -999 -999 -999
2007-05-22 09:07 51°14.146 2°49.147 -999 -999 -999 -999 -999
2007-05-22 09:08 51°14.138 2°49.063 -999 -999 -999 -999 -999
2007-05-22 09:09 51°14.129 2°48.978 -999 -999 -999 -999 -999
2007-05-22 09:10 51°14.122 2°48.893 -999 -999 -999 -999 -999
2007-05-22 09:11 51°14.115 2°48.809 -999 -999 -999 -999 -999
2007-05-22 09:12 51°14.108 2°48.726 -999 -999 -999 -999 -999
2007-05-22 09:13 51°14.101 2°48.642 -999 -999 -999 -999 -999
2007-05-22 09:14 51°14.098 2°48.564 -999 -999 -999 -999 -999
2007-05-22 09:15 51°14.097 2°48.501 -999 -999 -999 -999 -999
2007-05-22 09:16 51°14.097 2°48.445 -999 -999 -999 -999 -999
2007-05-22 09:17 51°14.1 2°48.392 -999 -999 -999 -999 -999
2007-05-22 09:18 51°14.107 2°48.342 -999 -999 -999 -999 -999
2007-05-22 09:19 51°14.124 2°48.293 -999 -999 -999 -999 -999
2007-05-22 09:20 51°14.178 2°48.193 -999 -999 -999 -999 -999
2007-05-22 09:21 51°14.272 2°48.036 -999 -999 -999 -999 -999
2007-05-22 09:22 51°14.393 2°47.847 -999 -999 -999 -999 -999
2007-05-22 09:23 51°14.532 2°47.635 -999 -999 -999 -999 -999
2007-05-22 09:24 51°14.677 2°47.416 -999 -999 -999 -999 -999
2007-05-22 09:25 51°14.822 2°47.194 -999 -999 -999 -999 -999
2007-05-22 09:26 51°14.967 2°46.977 -999 -999 -999 -999 -999
2007-05-22 09:27 51°15.114 2°46.765 -999 -999 -999 -999 -999
2007-05-22 09:28 51°15.254 2°46.56 -999 -999 -999 -999 -999
2007-05-22 09:29 51°15.339 2°46.42 -999 -999 -999 -999 -999
2007-05-22 09:30 51°15.401 2°46.356 -999 -999 -999 -999 -999
2007-05-22 09:31 51°15.436 2°46.347 -999 -999 -999 -999 -999
2007-05-22 09:32 51°15.441 2°46.368 -999 -999 -999 -999 -999
2007-05-22 09:33 51°15.425 2°46.397 -999 -999 -999 -999 -999
2007-05-22 09:34 51°15.412 2°46.42 -999 -999 -999 -999 -999
2007-05-22 09:35 51°15.39 2°46.467 -999 -999 -999 -999 -999
2007-05-22 09:36 51°15.351 2°46.498 -999 -999 -999 -999 -999
2007-05-22 09:37 51°15.302 2°46.519 -999 -999 -999 -999 -999
2007-05-22 09:38 51°15.239 2°46.541 -999 -999 -999 -999 -999
2007-05-22 09:39 51°15.183 2°46.579 -999 -999 -999 -999 -999
2007-05-22 09:40 51°15.139 2°46.613 -999 -999 -999 -999 -999
2007-05-22 09:41 51°15.101 2°46.64 -999 -999 -999 -999 -999
2007-05-22 09:42 51°15.067 2°46.665 -999 -999 -999 -999 -999
2007-05-22 09:43 51°15.031 2°46.697 -999 -999 -999 -999 -999
2007-05-22 09:44 51°14.991 2°46.731 -999 -999 -999 -999 -999
2007-05-22 09:45 51°14.94 2°46.757 -999 -999 -999 -999 -999
2007-05-22 09:46 51°14.878 2°46.757 -999 -999 -999 -999 -999
2007-05-22 09:47 51°14.816 2°46.721 -999 -999 -999 -999 -999
2007-05-22 09:48 51°14.766 2°46.665 -999 -999 -999 -999 -999
2007-05-22 09:49 51°14.725 2°46.596 -999 -999 -999 -999 -999
2007-05-22 09:50 51°14.694 2°46.519 -999 -999 -999 -999 -999
2007-05-22 09:51 51°14.67 2°46.437 -999 -999 -999 -999 -999
2007-05-22 09:52 51°14.653 2°46.353 -999 -999 -999 -999 -999
2007-05-22 09:53 51°14.641 2°46.269 -999 -999 -999 -999 -999
2007-05-22 09:54 51°14.634 2°46.187 -999 -999 -999 -999 -999
2007-05-22 09:55 51°14.631 2°46.108 -999 -999 -999 -999 -999
2007-05-22 09:56 51°14.632 2°46.034 -999 -999 -999 -999 -999
2007-05-22 09:57 51°14.64 2°45.963 -999 -999 -999 -999 -999
2007-05-22 09:58 51°14.646 2°45.906 -999 -999 -999 -999 -999
2007-05-22 09:59 51°14.647 2°45.857 -999 -999 -999 -999 -999
2007-05-22 10:00 51°14.646 2°45.812 -999 -999 -999 -999 -999
2007-05-22 10:01 51°14.685 2°45.753 -999 -999 -999 -999 -999
2007-05-22 10:02 51°14.745 2°45.834 -999 -999 -999 -999 -999
2007-05-22 10:03 51°14.742 2°46.053 -999 -999 -999 -999 -999
2007-05-22 10:04 51°14.743 2°46.347 -999 -999 -999 -999 -999
2007-05-22 10:05 51°14.739 2°46.663 -999 -999 -999 -999 -999
2007-05-22 10:06 51°14.733 2°46.979 -999 -999 -999 -999 -999
2007-05-22 10:07 51°14.729 2°47.292 -999 -999 -999 -999 -999
2007-05-22 10:08 51°14.727 2°47.614 -999 -999 -999 -999 -999
2007-05-22 10:09 51°14.722 2°47.935 -999 -999 -999 -999 -999
2007-05-22 10:10 51°14.722 2°48.256 -999 -999 -999 -999 -999
2007-05-22 10:11 51°14.727 2°48.576 -999 -999 -999 -999 -999
2007-05-22 10:12 51°14.731 2°48.896 -999 -999 -999 -999 -999
2007-05-22 10:13 51°14.736 2°49.213 -999 -999 -999 -999 -999
2007-05-22 10:14 51°14.74 2°49.53 -999 -999 -999 -999 -999
2007-05-22 10:15 51°14.746 2°49.848 -999 -999 -999 -999 -999
2007-05-22 10:16 51°14.751 2°50.167 -999 -999 -999 -999 -999
2007-05-22 10:17 51°14.739 2°50.486 -999 -999 -999 -999 -999
2007-05-22 10:18 51°14.715 2°50.8 -999 -999 -999 -999 -999
2007-05-22 10:19 51°14.719 2°51.115 -999 -999 -999 -999 -999
2007-05-22 10:20 51°14.723 2°51.432 -999 -999 -999 -999 -999
2007-05-22 10:21 51°14.725 2°51.753 -999 -999 -999 -999 -999
2007-05-22 10:22 51°14.729 2°52.081 -999 -999 -999 -999 -999
2007-05-22 10:23 51°14.732 2°52.4 -999 -999 -999 -999 -999
2007-05-22 10:24 51°14.736 2°52.725 -999 -999 -999 -999 -999
2007-05-22 10:25 51°14.735 2°53.049 -999 -999 -999 -999 -999
2007-05-22 10:26 51°14.741 2°53.359 -999 -999 -999 -999 -999
2007-05-22 10:27 51°14.738 2°53.652 -999 -999 -999 -999 -999
2007-05-22 10:28 51°14.7 2°53.942 -999 -999 -999 -999 -999
2007-05-22 10:29 51°14.616 2°54.213 -999 -999 -999 -999 -999
2007-05-22 10:30 51°14.528 2°54.5 -999 -999 -999 -999 -999
2007-05-22 10:31 51°14.44 2°54.799 -999 -999 -999 -999 -999
2007-05-22 10:32 51°14.342 2°55.089 -999 -999 -999 -999 -999
2007-05-22 10:33 51°14.213 2°55.331 -999 -999 -999 -999 -999
2007-05-22 10:34 51°14.054 2°55.494 -999 -999 -999 -999 -999
2007-05-22 10:35 51°13.881 2°55.629 -999 -999 -999 -999 -999
2007-05-22 10:36 51°13.75 2°55.708 -999 -999 -999 -999 -999
2007-05-22 10:37 51°13.676 2°55.829 -999 -999 -999 -999 -999
2007-05-22 10:38 51°13.636 2°55.939 -999 -999 -999 -999 -999
2007-05-22 10:39 51°13.618 2°56.024 -999 -999 -999 -999 -999
2007-05-22 10:40 51°13.609 2°56.078 -999 -999 -999 -999 -999
2007-05-22 10:41 51°13.603 2°56.096 -999 -999 -999 -999 -999
2007-05-22 10:42 51°13.602 2°56.099 -999 -999 -999 -999 -999
2007-05-22 10:43 51°13.602 2°56.099 -999 -999 -999 -999 -999
2007-05-22 10:44 51°13.602 2°56.1 -999 -999 -999 -999 -999
2007-05-22 10:45 51°13.602 2°56.099 -999 -999 -999 -999 -999
2007-05-22 10:46 51°13.603 2°56.1 -999 -999 -999 -999 -999
2007-05-22 10:47 51°13.603 2°56.1 -999 -999 -999 -999 -999
2007-05-22 10:48 51°13.602 2°56.1 -999 -999 -999 -999 -999
2007-05-22 10:49 51°13.602 2°56.1 -999 -999 -999 -999 -999
2007-05-22 10:50 51°13.603 2°56.102 -999 -999 -999 -999 -999
2007-05-22 10:51 51°13.603 2°56.102 -999 -999 -999 -999 -999
2007-05-22 10:52 51°13.603 2°56.102 -999 -999 -999 -999 -999
2007-05-22 10:53 51°13.603 2°56.102 -999 -999 -999 -999 -999
2007-05-22 10:54 51°13.603 2°56.102 -999 -999 -999 -999 -999
2007-05-22 10:55 51°13.606 2°56.102 -999 -999 -999 -999 -999
2007-05-22 10:56 51°13.602 2°56.102 -999 -999 -999 -999 -999
2007-05-22 10:57 51°13.601 2°56.1 -999 -999 -999 -999 -999
2007-05-22 10:58 51°13.603 2°56.101 -999 -999 -999 -999 -999
2007-05-22 10:59 51°13.604 2°56.101 -999 -999 -999 -999 -999
2007-05-22 11:00 51°13.602 2°56.101 -999 -999 -999 -999 -999
2007-05-22 11:01 51°13.604 2°56.102 -999 -999 -999 -999 -999
2007-05-22 11:02 51°13.603 2°56.101 -999 -999 -999 -999 -999
2007-05-22 11:03 51°13.603 2°56.101 -999 -999 -999 -999 -999
2007-05-22 11:04 51°13.605 2°56.103 -999 -999 -999 -999 -999
2007-05-22 11:05 51°13.604 2°56.102 -999 -999 -999 -999 -999
2007-05-22 11:06 51°13.605 2°56.102 -999 -999 -999 -999 -999
2007-05-22 11:07 51°13.603 2°56.1 -999 -999 -999 -999 -999
2007-05-22 11:08 51°13.603 2°56.101 -999 -999 -999 -999 -999
2007-05-22 11:09 51°13.602 2°56.1 -999 -999 -999 -999 -999
2007-05-22 11:10 51°13.602 2°56.099 -999 -999 -999 -999 -999
2007-05-22 11:11 51°13.603 2°56.1 -999 -999 -999 -999 -999
2007-05-22 11:12 51°13.603 2°56.1 -999 -999 -999 -999 -999
2007-05-22 11:13 51°13.603 2°56.1 -999 -999 -999 -999 -999
2007-05-22 11:14 51°13.602 2°56.1 -999 -999 -999 -999 -999
2007-05-22 11:15 51°13.602 2°56.099 -999 -999 -999 -999 -999
2007-05-22 11:16 51°13.602 2°56.1 -999 -999 -999 -999 -999
2007-05-22 11:17 51°13.602 2°56.1 -999 -999 -999 -999 -999
2007-05-22 11:18 51°13.602 2°56.1 -999 -999 -999 -999 -999
2007-05-22 11:19 51°13.602 2°56.1 -999 -999 -999 -999 -999
2007-05-22 11:20 51°13.602 2°56.1 -999 -999 -999 -999 -999
2007-05-22 11:21 51°13.602 2°56.1 -999 -999 -999 -999 -999
2007-05-22 11:22 51°13.603 2°56.1 -999 -999 -999 -999 -999
2007-05-22 11:23 51°13.602 2°56.101 -999 -999 -999 -999 -999
2007-05-22 11:24 51°13.602 2°56.101 -999 -999 -999 -999 -999
2007-05-22 11:25 51°13.602 2°56.102 -999 -999 -999 -999 -999
2007-05-22 11:26 51°13.602 2°56.102 -999 -999 -999 -999 -999
2007-05-22 11:27 51°13.602 2°56.101 -999 -999 -999 -999 -999
2007-05-22 11:28 51°13.602 2°56.101 -999 -999 -999 -999 -999
2007-05-22 11:29 51°13.602 2°56.101 -999 -999 -999 -999 -999
2007-05-22 11:30 51°13.602 2°56.102 -999 -999 -999 -999 -999
2007-05-22 11:31 51°13.602 2°56.101 -999 -999 -999 -999 -999
2007-05-22 11:32 51°13.602 2°56.1 -999 -999 -999 -999 -999
2007-05-22 11:33 51°13.602 2°56.099 -999 -999 -999 -999 -999
2007-05-22 11:34 51°13.601 2°56.099 -999 -999 -999 -999 -999
2007-05-22 11:35 51°13.602 2°56.099 -999 -999 -999 -999 -999
2007-05-22 11:36 51°13.602 2°56.099 -999 -999 -999 -999 -999
2007-05-22 11:37 51°13.602 2°56.098 -999 -999 -999 -999 -999
2007-05-22 11:38 51°13.602 2°56.099 -999 -999 -999 -999 -999
2007-05-22 11:39 51°13.603 2°56.099 -999 -999 -999 -999 -999
2007-05-22 11:40 51°13.602 2°56.099 -999 -999 -999 -999 -999
2007-05-22 11:41 51°13.602 2°56.098 -999 -999 -999 -999 -999
2007-05-22 11:42 51°13.602 2°56.099 -999 -999 -999 -999 -999
2007-05-22 11:43 51°13.602 2°56.098 -999 -999 -999 -999 -999
2007-05-22 11:44 51°13.602 2°56.099 -999 -999 -999 -999 -999
2007-05-22 11:45 51°13.602 2°56.099 -999 -999 -999 -999 -999
2007-05-22 11:46 51°13.602 2°56.1 -999 -999 -999 -999 -999
2007-05-22 11:47 51°13.602 2°56.1 -999 -999 -999 -999 -999
2007-05-22 11:48 51°13.601 2°56.101 -999 -999 -999 -999 -999
2007-05-22 11:49 51°13.601 2°56.101 -999 -999 -999 -999 -999
2007-05-22 11:50 51°13.601 2°56.101 -999 -999 -999 -999 -999
2007-05-22 11:51 51°13.601 2°56.101 -999 -999 -999 -999 -999
2007-05-22 11:52 51°13.601 2°56.101 -999 -999 -999 -999 -999
2007-05-22 11:53 51°13.601 2°56.099 -999 -999 -999 -999 -999
2007-05-22 11:54 51°13.601 2°56.101 -999 -999 -999 -999 -999
2007-05-22 11:55 51°13.603 2°56.086 -999 -999 -999 -999 -999
2007-05-22 11:56 51°13.618 2°56.036 -999 -999 -999 -999 -999
2007-05-22 11:57 51°13.64 2°55.959 -999 -999 -999 -999 -999
2007-05-22 11:58 51°13.674 2°55.872 -999 -999 -999 -999 -999
2007-05-22 11:59 51°13.714 2°55.787 -999 -999 -999 -999 -999
2007-05-22 12:00 51°13.762 2°55.705 -999 -999 -999 -999 -999
2007-05-22 12:01 51°13.823 2°55.65 -999 -999 -999 -999 -999
2007-05-22 12:02 51°13.889 2°55.633 -999 -999 -999 -999 -999
2007-05-22 12:03 51°13.943 2°55.66 -999 -999 -999 -999 -999
2007-05-22 12:04 51°13.957 2°55.657 -999 -999 -999 -999 -999
2007-05-22 12:05 51°13.992 2°55.56 -999 -999 -999 -999 -999
2007-05-22 12:06 51°14.096 2°55.443 -999 -999 -999 -999 -999
2007-05-22 12:07 51°14.224 2°55.328 -999 -999 -999 -999 -999
2007-05-22 12:08 51°14.33 2°55.153 -999 -999 -999 -999 -999
2007-05-22 12:09 51°14.407 2°54.886 -999 -999 -999 -999 -999
2007-05-22 12:10 51°14.459 2°54.561 -999 -999 -999 -999 -999
2007-05-22 12:11 51°14.5 2°54.21 -999 -999 -999 -999 -999
2007-05-22 12:12 51°14.541 2°53.859 -999 -999 -999 -999 -999
2007-05-22 12:13 51°14.561 2°53.506 -999 -999 -999 -999 -999
2007-05-22 12:14 51°14.57 2°53.153 -999 -999 -999 -999 -999
2007-05-22 12:15 51°14.572 2°52.79 -999 -999 -999 -999 -999
2007-05-22 12:16 51°14.578 2°52.423 -999 -999 -999 -999 -999
2007-05-22 12:17 51°14.583 2°52.054 -999 -999 -999 -999 -999
2007-05-22 12:18 51°14.59 2°51.684 -999 -999 -999 -999 -999
2007-05-22 12:19 51°14.597 2°51.312 -999 -999 -999 -999 -999
2007-05-22 12:20 51°14.622 2°50.956 -999 -999 -999 -999 -999
2007-05-22 12:21 51°14.642 2°50.721 -999 -999 -999 -999 -999
2007-05-22 12:22 51°14.628 2°50.57 -999 -999 -999 -999 -999
2007-05-22 12:23 51°14.587 2°50.469 -999 -999 -999 -999 -999
2007-05-22 12:24 51°14.538 2°50.37 -999 -999 -999 -999 -999
2007-05-22 12:25 51°14.489 2°50.264 -999 -999 -999 -999 -999
2007-05-22 12:26 51°14.446 2°50.163 -999 -999 -999 -999 -999
2007-05-22 12:27 51°14.407 2°50.068 -999 -999 -999 -999 -999
2007-05-22 12:28 51°14.371 2°49.98 -999 -999 -999 -999 -999
2007-05-22 12:29 51°14.339 2°49.902 -999 -999 -999 -999 -999
2007-05-22 12:30 51°14.31 2°49.831 -999 -999 -999 -999 -999
2007-05-22 12:31 51°14.283 2°49.764 -999 -999 -999 -999 -999
2007-05-22 12:32 51°14.255 2°49.69 -999 -999 -999 -999 -999
2007-05-22 12:33 51°14.227 2°49.61 -999 -999 -999 -999 -999
2007-05-22 12:34 51°14.197 2°49.529 -999 -999 -999 -999 -999
2007-05-22 12:35 51°14.166 2°49.446 -999 -999 -999 -999 -999
2007-05-22 12:36 51°14.135 2°49.363 -999 -999 -999 -999 -999
2007-05-22 12:37 51°14.102 2°49.281 -999 -999 -999 -999 -999
2007-05-22 12:38 51°14.07 2°49.203 -999 -999 -999 -999 -999
2007-05-22 12:39 51°14.038 2°49.129 -999 -999 -999 -999 -999
2007-05-22 12:40 51°14.007 2°49.056 -999 -999 -999 -999 -999
2007-05-22 12:41 51°13.978 2°48.984 -999 -999 -999 -999 -999
2007-05-22 12:42 51°13.95 2°48.911 -999 -999 -999 -999 -999
2007-05-22 12:43 51°13.925 2°48.836 -999 -999 -999 -999 -999
2007-05-22 12:44 51°13.901 2°48.757 -999 -999 -999 -999 -999
2007-05-22 12:45 51°13.878 2°48.677 -999 -999 -999 -999 -999
2007-05-22 12:46 51°13.857 2°48.596 -999 -999 -999 -999 -999
2007-05-22 12:47 51°13.84 2°48.514 -999 -999 -999 -999 -999
2007-05-22 12:48 51°13.827 2°48.436 -999 -999 -999 -999 -999
2007-05-22 12:49 51°13.819 2°48.353 -999 -999 -999 -999 -999
2007-05-22 12:50 51°13.815 2°48.274 -999 -999 -999 -999 -999
2007-05-22 12:51 51°13.809 2°48.21 -999 -999 -999 -999 -999
2007-05-22 12:52 51°13.801 2°48.158 -999 -999 -999 -999 -999
2007-05-22 12:53 51°13.791 2°48.115 -999 -999 -999 -999 -999
2007-05-22 12:54 51°13.781 2°48.074 -999 -999 -999 -999 -999
2007-05-22 12:55 51°13.795 2°48.028 -999 -999 -999 -999 -999
2007-05-22 12:56 51°13.828 2°48.057 -999 -999 -999 -999 -999
2007-05-22 12:57 51°13.866 2°48.179 -999 -999 -999 -999 -999
2007-05-22 12:58 51°13.921 2°48.351 -999 -999 -999 -999 -999
2007-05-22 12:59 51°13.981 2°48.579 -999 -999 -999 -999 -999
2007-05-22 13:00 51°14.038 2°48.812 -999 -999 -999 -999 -999
2007-05-22 13:01 51°14.098 2°49.051 -999 -999 -999 -999 -999
2007-05-22 13:02 51°14.165 2°49.324 -999 -999 -999 -999 -999
2007-05-22 13:03 51°14.237 2°49.606 -999 -999 -999 -999 -999
2007-05-22 13:04 51°14.312 2°49.905 -999 -999 -999 -999 -999
2007-05-22 13:05 51°14.385 2°50.192 -999 -999 -999 -999 -999
2007-05-22 13:06 51°14.459 2°50.489 -999 -999 -999 -999 -999
2007-05-22 13:07 51°14.53 2°50.775 -999 -999 -999 -999 -999
2007-05-22 13:08 51°14.604 2°51.074 -999 -999 -999 -999 -999
2007-05-22 13:09 51°14.657 2°51.371 -999 -999 -999 -999 -999
2007-05-22 13:10 51°14.66 2°51.699 -999 -999 -999 -999 -999
2007-05-22 13:11 51°14.662 2°52.016 -999 -999 -999 -999 -999
2007-05-22 13:12 51°14.666 2°52.338 -999 -999 -999 -999 -999
2007-05-22 13:13 51°14.673 2°52.654 -999 -999 -999 -999 -999
2007-05-22 13:14 51°14.683 2°52.974 -999 -999 -999 -999 -999
2007-05-22 13:15 51°14.694 2°53.296 -999 -999 -999 -999 -999
2007-05-22 13:16 51°14.69 2°53.615 -999 -999 -999 -999 -999
2007-05-22 13:17 51°14.636 2°53.933 -999 -999 -999 -999 -999
2007-05-22 13:18 51°14.591 2°54.236 -999 -999 -999 -999 -999
2007-05-22 13:19 51°14.522 2°54.539 -999 -999 -999 -999 -999
2007-05-22 13:20 51°14.432 2°54.825 -999 -999 -999 -999 -999
2007-05-22 13:21 51°14.334 2°55.101 -999 -999 -999 -999 -999
2007-05-22 13:22 51°14.199 2°55.336 -999 -999 -999 -999 -999
2007-05-22 13:23 51°14.069 2°55.463 -999 -999 -999 -999 -999
2007-05-22 13:24 51°13.946 2°55.557 -999 -999 -999 -999 -999
2007-05-22 13:25 51°13.845 2°55.631 -999 -999 -999 -999 -999
2007-05-22 13:26 51°13.767 2°55.693 -999 -999 -999 -999 -999
2007-05-22 13:27 51°13.71 2°55.783 -999 -999 -999 -999 -999
2007-05-22 13:28 51°13.663 2°55.893 -999 -999 -999 -999 -999
2007-05-22 13:29 51°13.627 2°55.993 -999 -999 -999 -999 -999
2007-05-22 13:30 51°13.614 2°56.062 -999 -999 -999 -999 -999
2007-05-22 13:31 51°13.603 2°56.095 -999 -999 -999 -999 -999
2007-05-22 13:32 51°13.6 2°56.1 -999 -999 -999 -999 -999
2007-05-22 13:33 51°13.601 2°56.1 -999 -999 -999 -999 -999
2007-05-22 13:34 51°13.602 2°56.099 -999 -999 -999 -999 -999